createdAt,value
2022-10-23T00:02:52.516Z,0.00
2022-10-23T00:12:58.382Z,0.00
2022-10-23T00:23:05.499Z,0.00
2022-10-23T00:33:11.320Z,0.00
2022-10-23T00:43:19.031Z,0.00
2022-10-23T00:53:24.716Z,0.00
2022-10-23T01:03:32.378Z,0.00
2022-10-23T01:13:38.314Z,0.00
2022-10-23T01:23:45.992Z,0.00
2022-10-23T01:33:51.949Z,0.00
2022-10-23T01:43:59.284Z,0.00
2022-10-23T01:54:05.026Z,0.00
2022-10-23T02:04:12.028Z,0.00
2022-10-23T02:14:17.514Z,0.00
2022-10-23T02:24:24.758Z,0.00
2022-10-23T02:34:30.461Z,0.00
2022-10-23T02:44:38.126Z,0.00
2022-10-23T02:54:43.813Z,0.00
2022-10-23T03:04:50.735Z,0.00
2022-10-23T03:14:56.679Z,0.00
2022-10-23T03:25:04.267Z,0.00
2022-10-23T03:35:09.739Z,0.00
2022-10-23T03:45:17.110Z,0.00
2022-10-23T03:55:23.105Z,0.00
2022-10-23T04:05:30.705Z,0.00
2022-10-23T04:15:36.510Z,0.00
2022-10-23T04:25:44.162Z,0.00
2022-10-23T04:35:50.215Z,0.00
2022-10-23T04:45:58.082Z,0.00
2022-10-23T04:56:04.006Z,0.00
2022-10-23T05:06:11.305Z,0.00
2022-10-23T05:16:17.225Z,0.00
2022-10-23T05:26:24.738Z,0.00
2022-10-23T05:36:30.120Z,0.00
2022-10-23T05:46:37.631Z,0.00
2022-10-23T05:56:43.498Z,4.00
2022-10-23T06:06:51.047Z,8.00
2022-10-23T06:16:56.995Z,20.00
2022-10-23T06:27:05.250Z,28.00
2022-10-23T06:37:11.553Z,44.00
2022-10-23T06:47:19.239Z,40.00
2022-10-23T06:57:24.864Z,60.00
2022-10-23T07:07:33.053Z,56.00
2022-10-23T07:17:39.425Z,72.00
2022-10-23T07:27:45.652Z,80.00
2022-10-23T07:37:51.483Z,84.00
2022-10-23T07:47:57.079Z,108.00
2022-10-23T07:58:03.003Z,184.00
2022-10-23T08:08:08.566Z,96.00
2022-10-23T08:18:14.224Z,148.00
2022-10-23T08:28:20.298Z,156.00
2022-10-23T08:38:26.165Z,216.00
2022-10-23T08:48:32.016Z,340.00
2022-10-23T08:58:38.130Z,312.00
2022-10-23T09:08:43.776Z,540.00
2022-10-23T09:18:49.942Z,520.00
2022-10-23T09:28:55.596Z,524.00
2022-10-23T09:39:01.353Z,576.00
2022-10-23T09:49:07.543Z,308.00
2022-10-23T09:59:13.510Z,520.00
2022-10-23T10:09:19.683Z,468.00
2022-10-23T10:19:25.791Z,468.00
2022-10-23T10:29:31.680Z,604.00
2022-10-23T10:39:37.298Z,504.00
2022-10-23T10:49:43.065Z,552.00
2022-10-23T10:59:48.947Z,516.00
2022-10-23T11:09:54.861Z,624.00
2022-10-23T11:20:00.763Z,692.00
2022-10-23T11:30:06.996Z,608.00
2022-10-23T11:40:12.431Z,596.00
2022-10-23T11:50:18.494Z,380.00
2022-10-23T12:00:24.542Z,592.00
2022-10-23T12:10:30.510Z,716.00
2022-10-23T12:20:36.976Z,560.00
2022-10-23T12:30:43.648Z,556.00
2022-10-23T12:40:51.541Z,880.00
2022-10-23T12:50:57.270Z,696.00
2022-10-23T13:01:08.820Z,1148.00
2022-10-23T13:12:34.849Z,388.00
2022-10-23T13:22:42.864Z,460.00
2022-10-23T13:32:49.441Z,228.00
2022-10-23T13:42:57.090Z,116.00
2022-10-23T13:53:02.805Z,72.00
2022-10-23T14:03:10.880Z,128.00
2022-10-23T14:13:17.110Z,72.00
2022-10-23T14:23:23.433Z,52.00
2022-10-23T14:33:29.603Z,20.00
2022-10-23T14:43:35.739Z,12.00
2022-10-23T14:53:41.919Z,16.00
2022-10-23T15:03:48.929Z,24.00
2022-10-23T15:13:55.359Z,32.00
2022-10-23T15:24:01.740Z,60.00
2022-10-23T15:34:07.669Z,48.00
2022-10-23T15:44:14.492Z,32.00
2022-10-23T15:54:20.714Z,16.00
2022-10-23T16:04:27.156Z,8.00
2022-10-23T16:14:33.184Z,4.00
2022-10-23T16:24:40.782Z,0.00
2022-10-23T16:34:47.458Z,0.00
2022-10-23T16:44:53.790Z,0.00
2022-10-23T16:55:00.595Z,0.00
2022-10-23T17:05:07.606Z,24.00
2022-10-23T17:15:13.784Z,0.00
2022-10-23T17:25:19.351Z,24.00
2022-10-23T17:35:26.673Z,0.00
2022-10-23T17:45:32.360Z,0.00
2022-10-23T17:55:39.879Z,0.00
2022-10-23T18:05:45.735Z,24.00
2022-10-23T18:15:51.294Z,0.00
2022-10-23T18:25:59.638Z,0.00
2022-10-23T18:36:06.001Z,0.00
2022-10-23T18:46:13.867Z,0.00
2022-10-23T18:56:19.407Z,0.00
2022-10-23T19:06:26.909Z,0.00
2022-10-23T19:16:32.729Z,0.00
2022-10-23T19:26:40.060Z,0.00
2022-10-23T19:36:45.890Z,0.00
2022-10-23T19:46:53.790Z,0.00
2022-10-23T19:56:59.129Z,0.00
2022-10-23T20:07:06.804Z,0.00
2022-10-23T20:17:12.536Z,0.00
2022-10-23T20:27:19.636Z,0.00
2022-10-23T20:37:25.538Z,24.00
2022-10-23T20:47:31.039Z,0.00
2022-10-23T20:57:37.500Z,0.00
2022-10-23T21:07:43.186Z,0.00
2022-10-23T21:17:49.159Z,0.00
2022-10-23T21:27:54.599Z,0.00
2022-10-23T21:38:00.519Z,0.00
2022-10-23T21:48:06.151Z,0.00
2022-10-23T21:58:11.754Z,0.00
2022-10-23T22:08:17.560Z,0.00
2022-10-23T22:18:23.055Z,0.00
2022-10-23T22:28:28.499Z,0.00
2022-10-23T22:38:33.870Z,0.00
2022-10-23T22:48:39.222Z,0.00
2022-10-23T22:58:44.764Z,0.00
2022-10-23T23:08:50.421Z,0.00
2022-10-23T23:18:56.178Z,0.00
2022-10-23T23:29:01.796Z,0.00
2022-10-23T23:39:07.489Z,0.00
2022-10-23T23:49:13.193Z,0.00
2022-10-23T23:59:18.999Z,0.00
